<?xml version="1.0" encoding="UTF-8" standalone="no" ?>
<gpx xmlns="http://www.topografix.com/GPX/1/1" xmlns:xsi="http://www.w3.org/2001/XMLSchema-instance" xsi:schemaLocation="http://www.topografix.com/GPX/1/1 http://www.topografix.com/GPX/1/1/gpx.xsd" version="1.1" creator="VisuGPX - https://www.visugpx.com">
  <metadata>
    <name>Bon Encontre St Ferréol 8.6 km</name>
  </metadata>
  <trk>
    <name><![CDATA[2025 04 06 Bon Encontre St Ferréol Pierre]]></name>
    <extensions>
      <line xmlns="http://www.topografix.com/GPX/gpx_style/0/2">
        <color>0000FF</color>
        <width>4</width>
      </line>
    </extensions>
    <trkseg>
      <trkpt lat="44.2092" lon="0.68804">
        <ele>151.9</ele>
        <time>2025-04-06T12:05:43.841Z</time>
      </trkpt>
      <trkpt lat="44.20915" lon="0.68811">
        <ele>149.5</ele>
        <time>2025-04-06T12:05:53.840Z</time>
      </trkpt>
      <trkpt lat="44.20904" lon="0.68824">
        <ele>146.8</ele>
        <time>2025-04-06T12:06:07.840Z</time>
      </trkpt>
      <trkpt lat="44.20903" lon="0.68826">
        <ele>146</ele>
        <time>2025-04-06T12:06:09.841Z</time>
      </trkpt>
      <trkpt lat="44.20893" lon="0.68828">
        <ele>148.2</ele>
        <time>2025-04-06T12:06:17.841Z</time>
      </trkpt>
      <trkpt lat="44.20892" lon="0.68831">
        <ele>147.8</ele>
        <time>2025-04-06T12:06:21.841Z</time>
      </trkpt>
      <trkpt lat="44.20884" lon="0.68835">
        <ele>148.6</ele>
        <time>2025-04-06T12:06:29.841Z</time>
      </trkpt>
      <trkpt lat="44.20873" lon="0.68839">
        <ele>150.4</ele>
        <time>2025-04-06T12:06:41.841Z</time>
      </trkpt>
      <trkpt lat="44.2087" lon="0.6884">
        <ele>151.2</ele>
        <time>2025-04-06T12:06:45.841Z</time>
      </trkpt>
      <trkpt lat="44.20858" lon="0.68842">
        <ele>153.5</ele>
        <time>2025-04-06T12:06:55.841Z</time>
      </trkpt>
      <trkpt lat="44.20847" lon="0.68843">
        <ele>154</ele>
        <time>2025-04-06T12:07:03.841Z</time>
      </trkpt>
      <trkpt lat="44.20837" lon="0.68841">
        <ele>154.6</ele>
        <time>2025-04-06T12:07:11.840Z</time>
      </trkpt>
      <trkpt lat="44.20819" lon="0.68829">
        <ele>155.4</ele>
        <time>2025-04-06T12:07:27.841Z</time>
      </trkpt>
      <trkpt lat="44.20778" lon="0.68813">
        <ele>155.5</ele>
        <time>2025-04-06T12:07:59.841Z</time>
      </trkpt>
      <trkpt lat="44.20758" lon="0.68808">
        <ele>155.9</ele>
        <time>2025-04-06T12:08:15.840Z</time>
      </trkpt>
      <trkpt lat="44.2074" lon="0.68806">
        <ele>156</ele>
        <time>2025-04-06T12:08:31.841Z</time>
      </trkpt>
      <trkpt lat="44.20723" lon="0.68798">
        <ele>155.7</ele>
        <time>2025-04-06T12:08:47.841Z</time>
      </trkpt>
      <trkpt lat="44.2071" lon="0.68791">
        <ele>155.7</ele>
        <time>2025-04-06T12:08:59.841Z</time>
      </trkpt>
      <trkpt lat="44.20692" lon="0.68787">
        <ele>156.2</ele>
        <time>2025-04-06T12:09:15.840Z</time>
      </trkpt>
      <trkpt lat="44.20666" lon="0.68777">
        <ele>158</ele>
        <time>2025-04-06T12:09:39.841Z</time>
      </trkpt>
      <trkpt lat="44.20631" lon="0.68757">
        <ele>157.6</ele>
        <time>2025-04-06T12:10:11.840Z</time>
      </trkpt>
      <trkpt lat="44.20624" lon="0.68751">
        <ele>156.9</ele>
        <time>2025-04-06T12:10:19.840Z</time>
      </trkpt>
      <trkpt lat="44.20617" lon="0.68742">
        <ele>156.2</ele>
        <time>2025-04-06T12:10:27.841Z</time>
      </trkpt>
      <trkpt lat="44.20601" lon="0.68731">
        <ele>154.2</ele>
        <time>2025-04-06T12:10:43.841Z</time>
      </trkpt>
      <trkpt lat="44.2058" lon="0.68718">
        <ele>151.2</ele>
        <time>2025-04-06T12:11:03.840Z</time>
      </trkpt>
      <trkpt lat="44.20578" lon="0.68714">
        <ele>150.7</ele>
        <time>2025-04-06T12:11:07.841Z</time>
      </trkpt>
      <trkpt lat="44.20568" lon="0.68708">
        <ele>149.1</ele>
        <time>2025-04-06T12:11:15.841Z</time>
      </trkpt>
      <trkpt lat="44.20558" lon="0.68705">
        <ele>147.4</ele>
        <time>2025-04-06T12:11:23.840Z</time>
      </trkpt>
      <trkpt lat="44.20542" lon="0.68696">
        <ele>146.6</ele>
        <time>2025-04-06T12:11:39.841Z</time>
      </trkpt>
      <trkpt lat="44.20501" lon="0.68667">
        <ele>147</ele>
        <time>2025-04-06T12:12:19.840Z</time>
      </trkpt>
      <trkpt lat="44.20486" lon="0.68649">
        <ele>146.8</ele>
        <time>2025-04-06T12:12:35.840Z</time>
      </trkpt>
      <trkpt lat="44.20472" lon="0.68629">
        <ele>148.1</ele>
        <time>2025-04-06T12:12:51.840Z</time>
      </trkpt>
      <trkpt lat="44.20461" lon="0.68608">
        <ele>149.2</ele>
        <time>2025-04-06T12:13:07.841Z</time>
      </trkpt>
      <trkpt lat="44.20455" lon="0.68594">
        <ele>149</ele>
        <time>2025-04-06T12:13:15.840Z</time>
      </trkpt>
      <trkpt lat="44.20449" lon="0.68583">
        <ele>148.5</ele>
        <time>2025-04-06T12:13:23.840Z</time>
      </trkpt>
      <trkpt lat="44.2045" lon="0.68581">
        <ele>148.7</ele>
        <time>2025-04-06T12:13:27.841Z</time>
      </trkpt>
      <trkpt lat="44.20454" lon="0.68584">
        <ele>149.1</ele>
        <time>2025-04-06T12:13:31.841Z</time>
      </trkpt>
      <trkpt lat="44.20469" lon="0.68611">
        <ele>149.8</ele>
        <time>2025-04-06T12:13:51.841Z</time>
      </trkpt>
      <trkpt lat="44.20473" lon="0.68611">
        <ele>150</ele>
        <time>2025-04-06T12:13:55.841Z</time>
      </trkpt>
      <trkpt lat="44.20475" lon="0.68607">
        <ele>150.3</ele>
        <time>2025-04-06T12:13:59.840Z</time>
      </trkpt>
      <trkpt lat="44.20481" lon="0.686">
        <ele>151.2</ele>
        <time>2025-04-06T12:14:07.841Z</time>
      </trkpt>
      <trkpt lat="44.20486" lon="0.68591">
        <ele>152.1</ele>
        <time>2025-04-06T12:14:15.840Z</time>
      </trkpt>
      <trkpt lat="44.2049" lon="0.68588">
        <ele>152.6</ele>
        <time>2025-04-06T12:14:19.841Z</time>
      </trkpt>
      <trkpt lat="44.20513" lon="0.6855">
        <ele>155.7</ele>
        <time>2025-04-06T12:14:51.841Z</time>
      </trkpt>
      <trkpt lat="44.20532" lon="0.68505">
        <ele>159.7</ele>
        <time>2025-04-06T12:15:23.841Z</time>
      </trkpt>
      <trkpt lat="44.20551" lon="0.68469">
        <ele>163.6</ele>
        <time>2025-04-06T12:15:55.841Z</time>
      </trkpt>
      <trkpt lat="44.20552" lon="0.68463">
        <ele>164</ele>
        <time>2025-04-06T12:15:59.841Z</time>
      </trkpt>
      <trkpt lat="44.20556" lon="0.68451">
        <ele>164.8</ele>
        <time>2025-04-06T12:16:09.840Z</time>
      </trkpt>
      <trkpt lat="44.20557" lon="0.68446">
        <ele>165</ele>
        <time>2025-04-06T12:16:13.841Z</time>
      </trkpt>
      <trkpt lat="44.2056" lon="0.68442">
        <ele>165.4</ele>
        <time>2025-04-06T12:16:17.840Z</time>
      </trkpt>
      <trkpt lat="44.20589" lon="0.68327">
        <ele>173.4</ele>
        <time>2025-04-06T12:17:37.840Z</time>
      </trkpt>
      <trkpt lat="44.2059" lon="0.68317">
        <ele>173.7</ele>
        <time>2025-04-06T12:17:45.841Z</time>
      </trkpt>
      <trkpt lat="44.20595" lon="0.68305">
        <ele>174</ele>
        <time>2025-04-06T12:17:57.841Z</time>
      </trkpt>
      <trkpt lat="44.20593" lon="0.68299">
        <ele>174.4</ele>
        <time>2025-04-06T12:19:45.840Z</time>
      </trkpt>
      <trkpt lat="44.20585" lon="0.68294">
        <ele>174.8</ele>
        <time>2025-04-06T12:21:05.841Z</time>
      </trkpt>
      <trkpt lat="44.20578" lon="0.68286">
        <ele>175.2</ele>
        <time>2025-04-06T12:21:11.841Z</time>
      </trkpt>
      <trkpt lat="44.20558" lon="0.68274">
        <ele>175.6</ele>
        <time>2025-04-06T12:21:27.841Z</time>
      </trkpt>
      <trkpt lat="44.20533" lon="0.68253">
        <ele>176.2</ele>
        <time>2025-04-06T12:21:51.840Z</time>
      </trkpt>
      <trkpt lat="44.20525" lon="0.68249">
        <ele>176.3</ele>
        <time>2025-04-06T12:21:59.841Z</time>
      </trkpt>
      <trkpt lat="44.20496" lon="0.68246">
        <ele>177.6</ele>
        <time>2025-04-06T12:22:23.841Z</time>
      </trkpt>
      <trkpt lat="44.20478" lon="0.68241">
        <ele>178.1</ele>
        <time>2025-04-06T12:22:39.841Z</time>
      </trkpt>
      <trkpt lat="44.20459" lon="0.68237">
        <ele>177.7</ele>
        <time>2025-04-06T12:22:55.840Z</time>
      </trkpt>
      <trkpt lat="44.20449" lon="0.68233">
        <ele>177.5</ele>
        <time>2025-04-06T12:23:03.841Z</time>
      </trkpt>
      <trkpt lat="44.20431" lon="0.6822">
        <ele>177.1</ele>
        <time>2025-04-06T12:23:23.841Z</time>
      </trkpt>
      <trkpt lat="44.20389" lon="0.68206">
        <ele>173.6</ele>
        <time>2025-04-06T12:23:55.841Z</time>
      </trkpt>
      <trkpt lat="44.2037" lon="0.68201">
        <ele>171.8</ele>
        <time>2025-04-06T12:24:11.840Z</time>
      </trkpt>
      <trkpt lat="44.20349" lon="0.68199">
        <ele>170.6</ele>
        <time>2025-04-06T12:24:27.841Z</time>
      </trkpt>
      <trkpt lat="44.20329" lon="0.682">
        <ele>169.7</ele>
        <time>2025-04-06T12:24:43.841Z</time>
      </trkpt>
      <trkpt lat="44.2027" lon="0.68212">
        <ele>168.5</ele>
        <time>2025-04-06T12:25:31.840Z</time>
      </trkpt>
      <trkpt lat="44.20248" lon="0.68206">
        <ele>169</ele>
        <time>2025-04-06T12:25:51.841Z</time>
      </trkpt>
      <trkpt lat="44.20231" lon="0.68197">
        <ele>170.1</ele>
        <time>2025-04-06T12:26:07.841Z</time>
      </trkpt>
      <trkpt lat="44.20223" lon="0.68191">
        <ele>170.8</ele>
        <time>2025-04-06T12:26:15.840Z</time>
      </trkpt>
      <trkpt lat="44.20203" lon="0.68184">
        <ele>172</ele>
        <time>2025-04-06T12:26:31.841Z</time>
      </trkpt>
      <trkpt lat="44.20175" lon="0.68169">
        <ele>172.8</ele>
        <time>2025-04-06T12:26:59.841Z</time>
      </trkpt>
      <trkpt lat="44.20172" lon="0.68163">
        <ele>172.8</ele>
        <time>2025-04-06T12:27:03.841Z</time>
      </trkpt>
      <trkpt lat="44.20172" lon="0.68157">
        <ele>172.8</ele>
        <time>2025-04-06T12:27:07.840Z</time>
      </trkpt>
      <trkpt lat="44.20177" lon="0.68132">
        <ele>172.4</ele>
        <time>2025-04-06T12:27:23.841Z</time>
      </trkpt>
      <trkpt lat="44.20179" lon="0.68105">
        <ele>171.3</ele>
        <time>2025-04-06T12:27:39.841Z</time>
      </trkpt>
      <trkpt lat="44.20189" lon="0.68021">
        <ele>167.2</ele>
        <time>2025-04-06T12:28:27.840Z</time>
      </trkpt>
      <trkpt lat="44.2019" lon="0.67997">
        <ele>166.2</ele>
        <time>2025-04-06T12:28:43.841Z</time>
      </trkpt>
      <trkpt lat="44.20188" lon="0.67991">
        <ele>166</ele>
        <time>2025-04-06T12:28:47.841Z</time>
      </trkpt>
      <trkpt lat="44.2018" lon="0.67987">
        <ele>166.1</ele>
        <time>2025-04-06T12:28:55.841Z</time>
      </trkpt>
      <trkpt lat="44.20104" lon="0.67972">
        <ele>162.8</ele>
        <time>2025-04-06T12:29:59.841Z</time>
      </trkpt>
      <trkpt lat="44.20068" lon="0.67962">
        <ele>160.1</ele>
        <time>2025-04-06T12:30:31.841Z</time>
      </trkpt>
      <trkpt lat="44.2005" lon="0.67955">
        <ele>157.5</ele>
        <time>2025-04-06T12:30:47.841Z</time>
      </trkpt>
      <trkpt lat="44.20029" lon="0.6795">
        <ele>155.1</ele>
        <time>2025-04-06T12:31:07.840Z</time>
      </trkpt>
      <trkpt lat="44.20024" lon="0.67947">
        <ele>154.9</ele>
        <time>2025-04-06T12:31:11.840Z</time>
      </trkpt>
      <trkpt lat="44.20019" lon="0.67933">
        <ele>154.8</ele>
        <time>2025-04-06T12:31:19.841Z</time>
      </trkpt>
      <trkpt lat="44.20004" lon="0.67836">
        <ele>152.1</ele>
        <time>2025-04-06T12:32:23.841Z</time>
      </trkpt>
      <trkpt lat="44.20005" lon="0.67827">
        <ele>151.7</ele>
        <time>2025-04-06T12:32:31.841Z</time>
      </trkpt>
      <trkpt lat="44.20004" lon="0.67818">
        <ele>151.1</ele>
        <time>2025-04-06T12:33:19.841Z</time>
      </trkpt>
      <trkpt lat="44.20017" lon="0.67766">
        <ele>150.8</ele>
        <time>2025-04-06T12:33:51.841Z</time>
      </trkpt>
      <trkpt lat="44.20033" lon="0.6771">
        <ele>151.3</ele>
        <time>2025-04-06T12:34:23.841Z</time>
      </trkpt>
      <trkpt lat="44.20036" lon="0.67697">
        <ele>151.3</ele>
        <time>2025-04-06T12:34:31.841Z</time>
      </trkpt>
      <trkpt lat="44.20035" lon="0.67692">
        <ele>151.2</ele>
        <time>2025-04-06T12:34:35.841Z</time>
      </trkpt>
      <trkpt lat="44.20043" lon="0.67678">
        <ele>151.3</ele>
        <time>2025-04-06T12:34:51.841Z</time>
      </trkpt>
      <trkpt lat="44.20056" lon="0.67625">
        <ele>151.6</ele>
        <time>2025-04-06T12:35:23.841Z</time>
      </trkpt>
      <trkpt lat="44.20056" lon="0.67614">
        <ele>151.1</ele>
        <time>2025-04-06T12:35:31.840Z</time>
      </trkpt>
      <trkpt lat="44.20057" lon="0.67609">
        <ele>151.2</ele>
        <time>2025-04-06T12:35:47.841Z</time>
      </trkpt>
      <trkpt lat="44.20056" lon="0.67603">
        <ele>151.3</ele>
        <time>2025-04-06T12:36:03.841Z</time>
      </trkpt>
      <trkpt lat="44.20018" lon="0.67605">
        <ele>149.1</ele>
        <time>2025-04-06T12:36:43.841Z</time>
      </trkpt>
      <trkpt lat="44.20004" lon="0.67603">
        <ele>147.7</ele>
        <time>2025-04-06T12:36:55.840Z</time>
      </trkpt>
      <trkpt lat="44.19969" lon="0.67577">
        <ele>142.7</ele>
        <time>2025-04-06T12:37:27.841Z</time>
      </trkpt>
      <trkpt lat="44.1994" lon="0.67567">
        <ele>141</ele>
        <time>2025-04-06T12:37:51.841Z</time>
      </trkpt>
      <trkpt lat="44.19915" lon="0.6754">
        <ele>142.6</ele>
        <time>2025-04-06T12:38:15.841Z</time>
      </trkpt>
      <trkpt lat="44.19908" lon="0.67528">
        <ele>143.1</ele>
        <time>2025-04-06T12:38:23.841Z</time>
      </trkpt>
      <trkpt lat="44.19905" lon="0.67513">
        <ele>143.6</ele>
        <time>2025-04-06T12:38:31.840Z</time>
      </trkpt>
      <trkpt lat="44.19905" lon="0.67455">
        <ele>145.6</ele>
        <time>2025-04-06T12:39:03.841Z</time>
      </trkpt>
      <trkpt lat="44.19906" lon="0.67428">
        <ele>145.6</ele>
        <time>2025-04-06T12:39:19.841Z</time>
      </trkpt>
      <trkpt lat="44.19909" lon="0.67416">
        <ele>145.7</ele>
        <time>2025-04-06T12:39:27.840Z</time>
      </trkpt>
      <trkpt lat="44.1991" lon="0.67406">
        <ele>145.5</ele>
        <time>2025-04-06T12:39:35.841Z</time>
      </trkpt>
      <trkpt lat="44.19908" lon="0.6738">
        <ele>143.5</ele>
        <time>2025-04-06T12:39:51.841Z</time>
      </trkpt>
      <trkpt lat="44.19892" lon="0.67346">
        <ele>141.4</ele>
        <time>2025-04-06T12:40:15.841Z</time>
      </trkpt>
      <trkpt lat="44.19889" lon="0.67335">
        <ele>141.1</ele>
        <time>2025-04-06T12:40:23.840Z</time>
      </trkpt>
      <trkpt lat="44.19891" lon="0.67325">
        <ele>140.7</ele>
        <time>2025-04-06T12:40:29.841Z</time>
      </trkpt>
      <trkpt lat="44.19893" lon="0.67324">
        <ele>140.3</ele>
        <time>2025-04-06T12:40:31.840Z</time>
      </trkpt>
      <trkpt lat="44.19899" lon="0.67333">
        <ele>138.8</ele>
        <time>2025-04-06T12:40:39.840Z</time>
      </trkpt>
      <trkpt lat="44.19913" lon="0.67339">
        <ele>136.5</ele>
        <time>2025-04-06T12:40:53.840Z</time>
      </trkpt>
      <trkpt lat="44.19922" lon="0.67338">
        <ele>135.2</ele>
        <time>2025-04-06T12:41:01.841Z</time>
      </trkpt>
      <trkpt lat="44.19932" lon="0.67336">
        <ele>133.9</ele>
        <time>2025-04-06T12:41:09.841Z</time>
      </trkpt>
      <trkpt lat="44.1994" lon="0.67331">
        <ele>132.1</ele>
        <time>2025-04-06T12:41:17.841Z</time>
      </trkpt>
      <trkpt lat="44.19945" lon="0.6733">
        <ele>131.5</ele>
        <time>2025-04-06T12:41:21.841Z</time>
      </trkpt>
      <trkpt lat="44.19951" lon="0.67323">
        <ele>130.5</ele>
        <time>2025-04-06T12:41:29.841Z</time>
      </trkpt>
      <trkpt lat="44.19983" lon="0.67301">
        <ele>125.5</ele>
        <time>2025-04-06T12:42:01.841Z</time>
      </trkpt>
      <trkpt lat="44.19997" lon="0.67286">
        <ele>122.7</ele>
        <time>2025-04-06T12:42:17.841Z</time>
      </trkpt>
      <trkpt lat="44.20019" lon="0.6726">
        <ele>118.8</ele>
        <time>2025-04-06T12:42:45.841Z</time>
      </trkpt>
      <trkpt lat="44.20028" lon="0.67253">
        <ele>117.7</ele>
        <time>2025-04-06T12:42:53.840Z</time>
      </trkpt>
      <trkpt lat="44.20043" lon="0.67238">
        <ele>114.5</ele>
        <time>2025-04-06T12:43:09.841Z</time>
      </trkpt>
      <trkpt lat="44.20052" lon="0.67233">
        <ele>113.3</ele>
        <time>2025-04-06T12:43:17.841Z</time>
      </trkpt>
      <trkpt lat="44.20088" lon="0.67201">
        <ele>107.1</ele>
        <time>2025-04-06T12:43:53.840Z</time>
      </trkpt>
      <trkpt lat="44.20094" lon="0.6719">
        <ele>105.2</ele>
        <time>2025-04-06T12:44:01.841Z</time>
      </trkpt>
      <trkpt lat="44.20162" lon="0.67007">
        <ele>87.9</ele>
        <time>2025-04-06T12:46:09.841Z</time>
      </trkpt>
      <trkpt lat="44.20168" lon="0.66984">
        <ele>88</ele>
        <time>2025-04-06T12:46:25.840Z</time>
      </trkpt>
      <trkpt lat="44.2017" lon="0.66976">
        <ele>88.1</ele>
        <time>2025-04-06T12:47:21.841Z</time>
      </trkpt>
      <trkpt lat="44.2015" lon="0.66965">
        <ele>87.5</ele>
        <time>2025-04-06T12:49:53.841Z</time>
      </trkpt>
      <trkpt lat="44.20105" lon="0.66906">
        <ele>86.7</ele>
        <time>2025-04-06T12:50:57.841Z</time>
      </trkpt>
      <trkpt lat="44.20095" lon="0.66895">
        <ele>86.4</ele>
        <time>2025-04-06T12:51:09.840Z</time>
      </trkpt>
      <trkpt lat="44.20074" lon="0.66867">
        <ele>86.5</ele>
        <time>2025-04-06T12:51:33.841Z</time>
      </trkpt>
      <trkpt lat="44.20065" lon="0.66861">
        <ele>86</ele>
        <time>2025-04-06T12:51:41.841Z</time>
      </trkpt>
      <trkpt lat="44.20061" lon="0.66856">
        <ele>86</ele>
        <time>2025-04-06T12:51:45.841Z</time>
      </trkpt>
      <trkpt lat="44.20057" lon="0.66854">
        <ele>85.7</ele>
        <time>2025-04-06T12:51:49.841Z</time>
      </trkpt>
      <trkpt lat="44.20054" lon="0.66849">
        <ele>85.8</ele>
        <time>2025-04-06T12:51:53.841Z</time>
      </trkpt>
      <trkpt lat="44.20028" lon="0.66827">
        <ele>85.5</ele>
        <time>2025-04-06T12:52:17.841Z</time>
      </trkpt>
      <trkpt lat="44.20021" lon="0.66816">
        <ele>85.5</ele>
        <time>2025-04-06T12:52:25.841Z</time>
      </trkpt>
      <trkpt lat="44.20004" lon="0.66799">
        <ele>84</ele>
        <time>2025-04-06T12:52:41.840Z</time>
      </trkpt>
      <trkpt lat="44.1999" lon="0.66779">
        <ele>84.2</ele>
        <time>2025-04-06T12:52:57.840Z</time>
      </trkpt>
      <trkpt lat="44.19964" lon="0.66732">
        <ele>82.7</ele>
        <time>2025-04-06T12:53:29.841Z</time>
      </trkpt>
      <trkpt lat="44.19942" lon="0.66686">
        <ele>82.1</ele>
        <time>2025-04-06T12:54:01.841Z</time>
      </trkpt>
      <trkpt lat="44.19893" lon="0.66568">
        <ele>80.8</ele>
        <time>2025-04-06T12:55:21.840Z</time>
      </trkpt>
      <trkpt lat="44.19884" lon="0.66544">
        <ele>80.9</ele>
        <time>2025-04-06T12:55:37.841Z</time>
      </trkpt>
      <trkpt lat="44.19853" lon="0.66471">
        <ele>79.2</ele>
        <time>2025-04-06T12:56:25.841Z</time>
      </trkpt>
      <trkpt lat="44.19851" lon="0.66455">
        <ele>79.6</ele>
        <time>2025-04-06T12:56:57.841Z</time>
      </trkpt>
      <trkpt lat="44.19847" lon="0.66444">
        <ele>79.5</ele>
        <time>2025-04-06T12:57:21.841Z</time>
      </trkpt>
      <trkpt lat="44.1982" lon="0.66374">
        <ele>81.3</ele>
        <time>2025-04-06T12:58:09.841Z</time>
      </trkpt>
      <trkpt lat="44.19801" lon="0.66332">
        <ele>85.4</ele>
        <time>2025-04-06T12:58:41.841Z</time>
      </trkpt>
      <trkpt lat="44.19796" lon="0.66296">
        <ele>86.9</ele>
        <time>2025-04-06T12:59:05.840Z</time>
      </trkpt>
      <trkpt lat="44.19798" lon="0.66284">
        <ele>87.1</ele>
        <time>2025-04-06T12:59:13.841Z</time>
      </trkpt>
      <trkpt lat="44.198" lon="0.66279">
        <ele>87.6</ele>
        <time>2025-04-06T12:59:17.840Z</time>
      </trkpt>
      <trkpt lat="44.198" lon="0.66254">
        <ele>87.6</ele>
        <time>2025-04-06T12:59:33.840Z</time>
      </trkpt>
      <trkpt lat="44.19792" lon="0.66228">
        <ele>86.9</ele>
        <time>2025-04-06T12:59:49.841Z</time>
      </trkpt>
      <trkpt lat="44.19786" lon="0.6619">
        <ele>86.8</ele>
        <time>2025-04-06T13:00:13.840Z</time>
      </trkpt>
      <trkpt lat="44.19787" lon="0.66167">
        <ele>85.9</ele>
        <time>2025-04-06T13:00:29.840Z</time>
      </trkpt>
      <trkpt lat="44.19783" lon="0.66146">
        <ele>84.3</ele>
        <time>2025-04-06T13:00:41.841Z</time>
      </trkpt>
      <trkpt lat="44.19787" lon="0.66121">
        <ele>83.9</ele>
        <time>2025-04-06T13:00:57.841Z</time>
      </trkpt>
      <trkpt lat="44.19791" lon="0.66098">
        <ele>84.6</ele>
        <time>2025-04-06T13:01:21.841Z</time>
      </trkpt>
      <trkpt lat="44.19791" lon="0.66091">
        <ele>84.8</ele>
        <time>2025-04-06T13:01:29.841Z</time>
      </trkpt>
      <trkpt lat="44.19816" lon="0.66085">
        <ele>87.6</ele>
        <time>2025-04-06T13:02:01.840Z</time>
      </trkpt>
      <trkpt lat="44.19823" lon="0.6608">
        <ele>88.8</ele>
        <time>2025-04-06T13:02:09.840Z</time>
      </trkpt>
      <trkpt lat="44.1983" lon="0.66078">
        <ele>90.2</ele>
        <time>2025-04-06T13:02:17.840Z</time>
      </trkpt>
      <trkpt lat="44.19838" lon="0.66067">
        <ele>92.3</ele>
        <time>2025-04-06T13:02:33.841Z</time>
      </trkpt>
      <trkpt lat="44.19845" lon="0.66066">
        <ele>93.1</ele>
        <time>2025-04-06T13:02:41.840Z</time>
      </trkpt>
      <trkpt lat="44.19852" lon="0.66062">
        <ele>94</ele>
        <time>2025-04-06T13:02:49.841Z</time>
      </trkpt>
      <trkpt lat="44.19856" lon="0.66061">
        <ele>94.4</ele>
        <time>2025-04-06T13:02:53.840Z</time>
      </trkpt>
      <trkpt lat="44.19862" lon="0.66057">
        <ele>95</ele>
        <time>2025-04-06T13:03:01.841Z</time>
      </trkpt>
      <trkpt lat="44.19873" lon="0.66054">
        <ele>96.5</ele>
        <time>2025-04-06T13:03:17.841Z</time>
      </trkpt>
      <trkpt lat="44.19878" lon="0.6605">
        <ele>97.5</ele>
        <time>2025-04-06T13:03:25.841Z</time>
      </trkpt>
      <trkpt lat="44.19897" lon="0.66041">
        <ele>101.2</ele>
        <time>2025-04-06T13:03:49.840Z</time>
      </trkpt>
      <trkpt lat="44.199" lon="0.66041">
        <ele>101.8</ele>
        <time>2025-04-06T13:03:53.841Z</time>
      </trkpt>
      <trkpt lat="44.19906" lon="0.66034">
        <ele>103</ele>
        <time>2025-04-06T13:04:05.841Z</time>
      </trkpt>
      <trkpt lat="44.19932" lon="0.66021">
        <ele>108.8</ele>
        <time>2025-04-06T13:04:53.841Z</time>
      </trkpt>
      <trkpt lat="44.19942" lon="0.66013">
        <ele>111.5</ele>
        <time>2025-04-06T13:05:33.841Z</time>
      </trkpt>
      <trkpt lat="44.19953" lon="0.66009">
        <ele>113.3</ele>
        <time>2025-04-06T13:06:09.841Z</time>
      </trkpt>
      <trkpt lat="44.1998" lon="0.66003">
        <ele>117.4</ele>
        <time>2025-04-06T13:06:41.841Z</time>
      </trkpt>
      <trkpt lat="44.1999" lon="0.66004">
        <ele>119</ele>
        <time>2025-04-06T13:06:53.841Z</time>
      </trkpt>
      <trkpt lat="44.19996" lon="0.66001">
        <ele>119.4</ele>
        <time>2025-04-06T13:07:01.840Z</time>
      </trkpt>
      <trkpt lat="44.20002" lon="0.66001">
        <ele>120.6</ele>
        <time>2025-04-06T13:07:09.841Z</time>
      </trkpt>
      <trkpt lat="44.20009" lon="0.65999">
        <ele>121.6</ele>
        <time>2025-04-06T13:07:17.840Z</time>
      </trkpt>
      <trkpt lat="44.20016" lon="0.66">
        <ele>122.8</ele>
        <time>2025-04-06T13:07:25.841Z</time>
      </trkpt>
      <trkpt lat="44.20022" lon="0.65999">
        <ele>124</ele>
        <time>2025-04-06T13:07:33.841Z</time>
      </trkpt>
      <trkpt lat="44.20034" lon="0.66">
        <ele>126.2</ele>
        <time>2025-04-06T13:07:49.841Z</time>
      </trkpt>
      <trkpt lat="44.20046" lon="0.65996">
        <ele>128.2</ele>
        <time>2025-04-06T13:08:05.840Z</time>
      </trkpt>
      <trkpt lat="44.20076" lon="0.65993">
        <ele>133.2</ele>
        <time>2025-04-06T13:08:49.841Z</time>
      </trkpt>
      <trkpt lat="44.20076" lon="0.65995">
        <ele>133.1</ele>
        <time>2025-04-06T13:08:57.841Z</time>
      </trkpt>
      <trkpt lat="44.20076" lon="0.65994">
        <ele>133.1</ele>
        <time>2025-04-06T13:09:05.841Z</time>
      </trkpt>
      <trkpt lat="44.20092" lon="0.65994">
        <ele>136.1</ele>
        <time>2025-04-06T13:09:29.840Z</time>
      </trkpt>
      <trkpt lat="44.20099" lon="0.65995">
        <ele>137.3</ele>
        <time>2025-04-06T13:09:37.840Z</time>
      </trkpt>
      <trkpt lat="44.20108" lon="0.65993">
        <ele>139.4</ele>
        <time>2025-04-06T13:09:49.841Z</time>
      </trkpt>
      <trkpt lat="44.20112" lon="0.65988">
        <ele>141</ele>
        <time>2025-04-06T13:09:57.841Z</time>
      </trkpt>
      <trkpt lat="44.20114" lon="0.65973">
        <ele>143.3</ele>
        <time>2025-04-06T13:10:13.841Z</time>
      </trkpt>
      <trkpt lat="44.20119" lon="0.65958">
        <ele>145.3</ele>
        <time>2025-04-06T13:10:29.841Z</time>
      </trkpt>
      <trkpt lat="44.20124" lon="0.65953">
        <ele>146.4</ele>
        <time>2025-04-06T13:10:37.841Z</time>
      </trkpt>
      <trkpt lat="44.20131" lon="0.65949">
        <ele>147.6</ele>
        <time>2025-04-06T13:10:45.841Z</time>
      </trkpt>
      <trkpt lat="44.20136" lon="0.65948">
        <ele>148.5</ele>
        <time>2025-04-06T13:10:53.841Z</time>
      </trkpt>
      <trkpt lat="44.20138" lon="0.65949">
        <ele>148.7</ele>
        <time>2025-04-06T13:11:01.841Z</time>
      </trkpt>
      <trkpt lat="44.20145" lon="0.65948">
        <ele>149.7</ele>
        <time>2025-04-06T13:11:33.841Z</time>
      </trkpt>
      <trkpt lat="44.20144" lon="0.65945">
        <ele>149.7</ele>
        <time>2025-04-06T13:11:35.840Z</time>
      </trkpt>
      <trkpt lat="44.20153" lon="0.65939">
        <ele>151.2</ele>
        <time>2025-04-06T13:11:47.841Z</time>
      </trkpt>
      <trkpt lat="44.20158" lon="0.65939">
        <ele>151.7</ele>
        <time>2025-04-06T13:12:03.841Z</time>
      </trkpt>
      <trkpt lat="44.20157" lon="0.65943">
        <ele>151.7</ele>
        <time>2025-04-06T13:12:19.841Z</time>
      </trkpt>
      <trkpt lat="44.20164" lon="0.65958">
        <ele>152.1</ele>
        <time>2025-04-06T13:15:47.841Z</time>
      </trkpt>
      <trkpt lat="44.20167" lon="0.65966">
        <ele>152.2</ele>
        <time>2025-04-06T13:16:51.841Z</time>
      </trkpt>
      <trkpt lat="44.20166" lon="0.65963">
        <ele>152.3</ele>
        <time>2025-04-06T13:17:33.840Z</time>
      </trkpt>
      <trkpt lat="44.20193" lon="0.66026">
        <ele>153.8</ele>
        <time>2025-04-06T13:20:09.840Z</time>
      </trkpt>
      <trkpt lat="44.20208" lon="0.6603">
        <ele>154</ele>
        <time>2025-04-06T13:20:29.841Z</time>
      </trkpt>
      <trkpt lat="44.20211" lon="0.66033">
        <ele>154.1</ele>
        <time>2025-04-06T13:20:33.840Z</time>
      </trkpt>
      <trkpt lat="44.20215" lon="0.66079">
        <ele>154.7</ele>
        <time>2025-04-06T13:21:05.841Z</time>
      </trkpt>
      <trkpt lat="44.20216" lon="0.66103">
        <ele>155.3</ele>
        <time>2025-04-06T13:21:21.841Z</time>
      </trkpt>
      <trkpt lat="44.2022" lon="0.66127">
        <ele>155.9</ele>
        <time>2025-04-06T13:21:37.841Z</time>
      </trkpt>
      <trkpt lat="44.20221" lon="0.66138">
        <ele>155.9</ele>
        <time>2025-04-06T13:21:45.841Z</time>
      </trkpt>
      <trkpt lat="44.20231" lon="0.66183">
        <ele>156.4</ele>
        <time>2025-04-06T13:22:17.840Z</time>
      </trkpt>
      <trkpt lat="44.20234" lon="0.66206">
        <ele>156.7</ele>
        <time>2025-04-06T13:22:33.840Z</time>
      </trkpt>
      <trkpt lat="44.20237" lon="0.66254">
        <ele>156.5</ele>
        <time>2025-04-06T13:23:05.841Z</time>
      </trkpt>
      <trkpt lat="44.20235" lon="0.66276">
        <ele>156.5</ele>
        <time>2025-04-06T13:23:21.841Z</time>
      </trkpt>
      <trkpt lat="44.20237" lon="0.66289">
        <ele>156.1</ele>
        <time>2025-04-06T13:23:33.841Z</time>
      </trkpt>
      <trkpt lat="44.20245" lon="0.663">
        <ele>155.4</ele>
        <time>2025-04-06T13:23:45.841Z</time>
      </trkpt>
      <trkpt lat="44.20246" lon="0.66303">
        <ele>155.2</ele>
        <time>2025-04-06T13:23:49.840Z</time>
      </trkpt>
      <trkpt lat="44.20268" lon="0.6632">
        <ele>154</ele>
        <time>2025-04-06T13:24:13.840Z</time>
      </trkpt>
      <trkpt lat="44.20297" lon="0.66336">
        <ele>152.3</ele>
        <time>2025-04-06T13:24:45.841Z</time>
      </trkpt>
      <trkpt lat="44.20321" lon="0.66354">
        <ele>151.4</ele>
        <time>2025-04-06T13:25:09.840Z</time>
      </trkpt>
      <trkpt lat="44.20333" lon="0.6636">
        <ele>151</ele>
        <time>2025-04-06T13:25:21.841Z</time>
      </trkpt>
      <trkpt lat="44.20341" lon="0.6636">
        <ele>151</ele>
        <time>2025-04-06T13:25:29.840Z</time>
      </trkpt>
      <trkpt lat="44.20451" lon="0.66225">
        <ele>149.1</ele>
        <time>2025-04-06T13:27:37.841Z</time>
      </trkpt>
      <trkpt lat="44.20466" lon="0.66209">
        <ele>148.5</ele>
        <time>2025-04-06T13:27:53.840Z</time>
      </trkpt>
      <trkpt lat="44.20472" lon="0.662">
        <ele>148.2</ele>
        <time>2025-04-06T13:28:01.841Z</time>
      </trkpt>
      <trkpt lat="44.20481" lon="0.66195">
        <ele>147.7</ele>
        <time>2025-04-06T13:28:17.841Z</time>
      </trkpt>
      <trkpt lat="44.20483" lon="0.66203">
        <ele>147.9</ele>
        <time>2025-04-06T13:29:29.841Z</time>
      </trkpt>
      <trkpt lat="44.20489" lon="0.66214">
        <ele>148.1</ele>
        <time>2025-04-06T13:29:37.841Z</time>
      </trkpt>
      <trkpt lat="44.20505" lon="0.66257">
        <ele>149.4</ele>
        <time>2025-04-06T13:30:09.841Z</time>
      </trkpt>
      <trkpt lat="44.20506" lon="0.66263">
        <ele>149.7</ele>
        <time>2025-04-06T13:30:13.840Z</time>
      </trkpt>
      <trkpt lat="44.20539" lon="0.66323">
        <ele>150.8</ele>
        <time>2025-04-06T13:31:01.841Z</time>
      </trkpt>
      <trkpt lat="44.20573" lon="0.66408">
        <ele>152.9</ele>
        <time>2025-04-06T13:32:01.840Z</time>
      </trkpt>
      <trkpt lat="44.206" lon="0.66468">
        <ele>156.8</ele>
        <time>2025-04-06T13:32:49.840Z</time>
      </trkpt>
      <trkpt lat="44.20605" lon="0.66483">
        <ele>157</ele>
        <time>2025-04-06T13:33:05.841Z</time>
      </trkpt>
      <trkpt lat="44.20609" lon="0.66488">
        <ele>157</ele>
        <time>2025-04-06T13:33:13.841Z</time>
      </trkpt>
      <trkpt lat="44.20617" lon="0.66492">
        <ele>156.9</ele>
        <time>2025-04-06T13:35:33.840Z</time>
      </trkpt>
      <trkpt lat="44.20644" lon="0.66521">
        <ele>154.4</ele>
        <time>2025-04-06T13:36:05.840Z</time>
      </trkpt>
      <trkpt lat="44.2068" lon="0.66549">
        <ele>152.4</ele>
        <time>2025-04-06T13:36:41.841Z</time>
      </trkpt>
      <trkpt lat="44.20697" lon="0.66556">
        <ele>152</ele>
        <time>2025-04-06T13:36:57.841Z</time>
      </trkpt>
      <trkpt lat="44.20724" lon="0.66574">
        <ele>152</ele>
        <time>2025-04-06T13:37:21.841Z</time>
      </trkpt>
      <trkpt lat="44.20742" lon="0.66581">
        <ele>152</ele>
        <time>2025-04-06T13:37:37.841Z</time>
      </trkpt>
      <trkpt lat="44.20758" lon="0.66594">
        <ele>151.5</ele>
        <time>2025-04-06T13:37:53.840Z</time>
      </trkpt>
      <trkpt lat="44.20775" lon="0.66604">
        <ele>151</ele>
        <time>2025-04-06T13:38:09.841Z</time>
      </trkpt>
      <trkpt lat="44.20784" lon="0.66604">
        <ele>150.8</ele>
        <time>2025-04-06T13:38:17.841Z</time>
      </trkpt>
      <trkpt lat="44.20792" lon="0.66599">
        <ele>150.5</ele>
        <time>2025-04-06T13:38:25.841Z</time>
      </trkpt>
      <trkpt lat="44.20798" lon="0.66591">
        <ele>150.3</ele>
        <time>2025-04-06T13:38:33.841Z</time>
      </trkpt>
      <trkpt lat="44.20808" lon="0.66569">
        <ele>149.9</ele>
        <time>2025-04-06T13:38:49.841Z</time>
      </trkpt>
      <trkpt lat="44.2082" lon="0.66549">
        <ele>149.2</ele>
        <time>2025-04-06T13:39:05.841Z</time>
      </trkpt>
      <trkpt lat="44.20829" lon="0.66542">
        <ele>148.3</ele>
        <time>2025-04-06T13:39:13.840Z</time>
      </trkpt>
      <trkpt lat="44.20838" lon="0.66538">
        <ele>146.2</ele>
        <time>2025-04-06T13:39:21.841Z</time>
      </trkpt>
      <trkpt lat="44.20842" lon="0.66538">
        <ele>144.9</ele>
        <time>2025-04-06T13:39:25.840Z</time>
      </trkpt>
      <trkpt lat="44.20858" lon="0.6655">
        <ele>142.8</ele>
        <time>2025-04-06T13:39:41.841Z</time>
      </trkpt>
      <trkpt lat="44.20873" lon="0.66566">
        <ele>143.7</ele>
        <time>2025-04-06T13:39:57.841Z</time>
      </trkpt>
      <trkpt lat="44.20888" lon="0.66572">
        <ele>143.4</ele>
        <time>2025-04-06T13:40:13.840Z</time>
      </trkpt>
      <trkpt lat="44.2091" lon="0.66574">
        <ele>144.2</ele>
        <time>2025-04-06T13:40:33.841Z</time>
      </trkpt>
      <trkpt lat="44.2092" lon="0.6658">
        <ele>145.3</ele>
        <time>2025-04-06T13:40:41.841Z</time>
      </trkpt>
      <trkpt lat="44.2093" lon="0.66589">
        <ele>145</ele>
        <time>2025-04-06T13:40:49.841Z</time>
      </trkpt>
      <trkpt lat="44.20938" lon="0.666">
        <ele>145.1</ele>
        <time>2025-04-06T13:40:57.841Z</time>
      </trkpt>
      <trkpt lat="44.20952" lon="0.66612">
        <ele>146.1</ele>
        <time>2025-04-06T13:41:09.841Z</time>
      </trkpt>
      <trkpt lat="44.20942" lon="0.66629">
        <ele>147.4</ele>
        <time>2025-04-06T13:42:29.840Z</time>
      </trkpt>
      <trkpt lat="44.20939" lon="0.66648">
        <ele>148.5</ele>
        <time>2025-04-06T13:42:49.841Z</time>
      </trkpt>
      <trkpt lat="44.20891" lon="0.66771">
        <ele>151.8</ele>
        <time>2025-04-06T13:45:05.841Z</time>
      </trkpt>
      <trkpt lat="44.20888" lon="0.66782">
        <ele>152.2</ele>
        <time>2025-04-06T13:45:13.840Z</time>
      </trkpt>
      <trkpt lat="44.20888" lon="0.66788">
        <ele>152.4</ele>
        <time>2025-04-06T13:45:17.841Z</time>
      </trkpt>
      <trkpt lat="44.20893" lon="0.66797">
        <ele>152.7</ele>
        <time>2025-04-06T13:45:25.840Z</time>
      </trkpt>
      <trkpt lat="44.20936" lon="0.66842">
        <ele>152.5</ele>
        <time>2025-04-06T13:46:13.841Z</time>
      </trkpt>
      <trkpt lat="44.20963" lon="0.66875">
        <ele>153.3</ele>
        <time>2025-04-06T13:46:45.841Z</time>
      </trkpt>
      <trkpt lat="44.21013" lon="0.66928">
        <ele>157.9</ele>
        <time>2025-04-06T13:47:49.840Z</time>
      </trkpt>
      <trkpt lat="44.21038" lon="0.6695">
        <ele>159.1</ele>
        <time>2025-04-06T13:48:53.841Z</time>
      </trkpt>
      <trkpt lat="44.21039" lon="0.66958">
        <ele>159.1</ele>
        <time>2025-04-06T13:49:41.841Z</time>
      </trkpt>
      <trkpt lat="44.21046" lon="0.66969">
        <ele>158.7</ele>
        <time>2025-04-06T13:50:57.840Z</time>
      </trkpt>
      <trkpt lat="44.21057" lon="0.66981">
        <ele>157.5</ele>
        <time>2025-04-06T13:51:29.841Z</time>
      </trkpt>
      <trkpt lat="44.21061" lon="0.66991">
        <ele>156.6</ele>
        <time>2025-04-06T13:51:37.841Z</time>
      </trkpt>
      <trkpt lat="44.21075" lon="0.67008">
        <ele>154.3</ele>
        <time>2025-04-06T13:51:53.840Z</time>
      </trkpt>
      <trkpt lat="44.2108" lon="0.6702">
        <ele>154</ele>
        <time>2025-04-06T13:52:01.840Z</time>
      </trkpt>
      <trkpt lat="44.21091" lon="0.67035">
        <ele>153.9</ele>
        <time>2025-04-06T13:52:17.841Z</time>
      </trkpt>
      <trkpt lat="44.21114" lon="0.67059">
        <ele>155</ele>
        <time>2025-04-06T13:52:41.841Z</time>
      </trkpt>
      <trkpt lat="44.21131" lon="0.6709">
        <ele>155.9</ele>
        <time>2025-04-06T13:53:05.841Z</time>
      </trkpt>
      <trkpt lat="44.21139" lon="0.67112">
        <ele>157</ele>
        <time>2025-04-06T13:53:21.841Z</time>
      </trkpt>
      <trkpt lat="44.21151" lon="0.67133">
        <ele>156.3</ele>
        <time>2025-04-06T13:53:45.840Z</time>
      </trkpt>
      <trkpt lat="44.21154" lon="0.67145">
        <ele>156</ele>
        <time>2025-04-06T13:53:53.841Z</time>
      </trkpt>
      <trkpt lat="44.21158" lon="0.67154">
        <ele>155.8</ele>
        <time>2025-04-06T13:54:01.840Z</time>
      </trkpt>
      <trkpt lat="44.21165" lon="0.67165">
        <ele>155.2</ele>
        <time>2025-04-06T13:54:09.841Z</time>
      </trkpt>
      <trkpt lat="44.2117" lon="0.67176">
        <ele>154.7</ele>
        <time>2025-04-06T13:54:17.841Z</time>
      </trkpt>
      <trkpt lat="44.21183" lon="0.67225">
        <ele>153.3</ele>
        <time>2025-04-06T13:54:49.841Z</time>
      </trkpt>
      <trkpt lat="44.21195" lon="0.67274">
        <ele>152.8</ele>
        <time>2025-04-06T13:55:21.841Z</time>
      </trkpt>
      <trkpt lat="44.21203" lon="0.67319">
        <ele>152.8</ele>
        <time>2025-04-06T13:55:53.840Z</time>
      </trkpt>
      <trkpt lat="44.21223" lon="0.67411">
        <ele>153.2</ele>
        <time>2025-04-06T13:56:57.841Z</time>
      </trkpt>
      <trkpt lat="44.21233" lon="0.67446">
        <ele>152.7</ele>
        <time>2025-04-06T13:57:21.841Z</time>
      </trkpt>
      <trkpt lat="44.21244" lon="0.67465">
        <ele>153</ele>
        <time>2025-04-06T13:57:37.841Z</time>
      </trkpt>
      <trkpt lat="44.21272" lon="0.67496">
        <ele>152.8</ele>
        <time>2025-04-06T13:58:09.840Z</time>
      </trkpt>
      <trkpt lat="44.2128" lon="0.67501">
        <ele>153.1</ele>
        <time>2025-04-06T13:58:17.841Z</time>
      </trkpt>
      <trkpt lat="44.21301" lon="0.67524">
        <ele>154.5</ele>
        <time>2025-04-06T13:58:41.840Z</time>
      </trkpt>
      <trkpt lat="44.2131" lon="0.67538">
        <ele>155</ele>
        <time>2025-04-06T13:58:55.841Z</time>
      </trkpt>
      <trkpt lat="44.21313" lon="0.67547">
        <ele>155</ele>
        <time>2025-04-06T13:59:03.841Z</time>
      </trkpt>
      <trkpt lat="44.21322" lon="0.67555">
        <ele>155</ele>
        <time>2025-04-06T14:01:11.841Z</time>
      </trkpt>
      <trkpt lat="44.21325" lon="0.67568">
        <ele>155.3</ele>
        <time>2025-04-06T14:02:27.840Z</time>
      </trkpt>
      <trkpt lat="44.21329" lon="0.67578">
        <ele>155.7</ele>
        <time>2025-04-06T14:02:35.841Z</time>
      </trkpt>
      <trkpt lat="44.21338" lon="0.67625">
        <ele>156.3</ele>
        <time>2025-04-06T14:03:07.841Z</time>
      </trkpt>
      <trkpt lat="44.21354" lon="0.67696">
        <ele>154.5</ele>
        <time>2025-04-06T14:04:11.841Z</time>
      </trkpt>
      <trkpt lat="44.21385" lon="0.67789">
        <ele>154.6</ele>
        <time>2025-04-06T14:05:15.841Z</time>
      </trkpt>
      <trkpt lat="44.21395" lon="0.6783">
        <ele>155.2</ele>
        <time>2025-04-06T14:08:11.840Z</time>
      </trkpt>
      <trkpt lat="44.21402" lon="0.67838">
        <ele>155.5</ele>
        <time>2025-04-06T14:08:19.840Z</time>
      </trkpt>
      <trkpt lat="44.21414" lon="0.67857">
        <ele>155.9</ele>
        <time>2025-04-06T14:08:35.841Z</time>
      </trkpt>
      <trkpt lat="44.2143" lon="0.679">
        <ele>156.5</ele>
        <time>2025-04-06T14:09:07.841Z</time>
      </trkpt>
      <trkpt lat="44.21459" lon="0.67966">
        <ele>158.5</ele>
        <time>2025-04-06T14:09:51.841Z</time>
      </trkpt>
      <trkpt lat="44.21466" lon="0.67977">
        <ele>159.2</ele>
        <time>2025-04-06T14:09:59.841Z</time>
      </trkpt>
      <trkpt lat="44.21479" lon="0.68004">
        <ele>159.9</ele>
        <time>2025-04-06T14:10:15.841Z</time>
      </trkpt>
      <trkpt lat="44.21489" lon="0.68028">
        <ele>161.8</ele>
        <time>2025-04-06T14:10:31.841Z</time>
      </trkpt>
      <trkpt lat="44.21491" lon="0.68039">
        <ele>162.4</ele>
        <time>2025-04-06T14:10:39.841Z</time>
      </trkpt>
      <trkpt lat="44.21495" lon="0.68051">
        <ele>162.9</ele>
        <time>2025-04-06T14:10:47.841Z</time>
      </trkpt>
      <trkpt lat="44.21498" lon="0.68064">
        <ele>163.6</ele>
        <time>2025-04-06T14:10:55.841Z</time>
      </trkpt>
      <trkpt lat="44.21501" lon="0.6807">
        <ele>164.1</ele>
        <time>2025-04-06T14:10:59.841Z</time>
      </trkpt>
      <trkpt lat="44.21516" lon="0.68128">
        <ele>167.5</ele>
        <time>2025-04-06T14:11:39.840Z</time>
      </trkpt>
      <trkpt lat="44.21557" lon="0.68252">
        <ele>169.1</ele>
        <time>2025-04-06T14:13:03.840Z</time>
      </trkpt>
      <trkpt lat="44.21559" lon="0.68256">
        <ele>169.3</ele>
        <time>2025-04-06T14:13:07.841Z</time>
      </trkpt>
      <trkpt lat="44.21566" lon="0.6828">
        <ele>170.4</ele>
        <time>2025-04-06T14:13:23.840Z</time>
      </trkpt>
      <trkpt lat="44.21586" lon="0.68328">
        <ele>171.9</ele>
        <time>2025-04-06T14:13:55.840Z</time>
      </trkpt>
      <trkpt lat="44.21629" lon="0.68416">
        <ele>171.3</ele>
        <time>2025-04-06T14:14:59.841Z</time>
      </trkpt>
      <trkpt lat="44.21638" lon="0.68439">
        <ele>171.1</ele>
        <time>2025-04-06T14:15:15.840Z</time>
      </trkpt>
      <trkpt lat="44.21652" lon="0.68487">
        <ele>170.9</ele>
        <time>2025-04-06T14:15:47.840Z</time>
      </trkpt>
      <trkpt lat="44.21663" lon="0.6854">
        <ele>172.5</ele>
        <time>2025-04-06T14:16:19.841Z</time>
      </trkpt>
      <trkpt lat="44.2167" lon="0.68593">
        <ele>173</ele>
        <time>2025-04-06T14:16:51.840Z</time>
      </trkpt>
      <trkpt lat="44.21676" lon="0.68619">
        <ele>172.7</ele>
        <time>2025-04-06T14:17:07.841Z</time>
      </trkpt>
      <trkpt lat="44.21706" lon="0.68822">
        <ele>176</ele>
        <time>2025-04-06T14:19:15.841Z</time>
      </trkpt>
      <trkpt lat="44.21706" lon="0.68846">
        <ele>176.3</ele>
        <time>2025-04-06T14:19:39.840Z</time>
      </trkpt>
      <trkpt lat="44.21696" lon="0.68859">
        <ele>176.9</ele>
        <time>2025-04-06T14:20:15.840Z</time>
      </trkpt>
      <trkpt lat="44.21686" lon="0.68866">
        <ele>177.2</ele>
        <time>2025-04-06T14:23:43.841Z</time>
      </trkpt>
      <trkpt lat="44.21673" lon="0.6887">
        <ele>177.3</ele>
        <time>2025-04-06T14:23:59.840Z</time>
      </trkpt>
      <trkpt lat="44.21632" lon="0.68888">
        <ele>175.4</ele>
        <time>2025-04-06T14:24:39.841Z</time>
      </trkpt>
      <trkpt lat="44.21623" lon="0.68893">
        <ele>174.8</ele>
        <time>2025-04-06T14:24:47.841Z</time>
      </trkpt>
      <trkpt lat="44.21586" lon="0.68898">
        <ele>173.4</ele>
        <time>2025-04-06T14:25:19.841Z</time>
      </trkpt>
      <trkpt lat="44.21577" lon="0.68898">
        <ele>173.4</ele>
        <time>2025-04-06T14:25:27.840Z</time>
      </trkpt>
      <trkpt lat="44.21517" lon="0.68904">
        <ele>173.3</ele>
        <time>2025-04-06T14:26:19.840Z</time>
      </trkpt>
      <trkpt lat="44.21463" lon="0.68897">
        <ele>174.2</ele>
        <time>2025-04-06T14:27:07.841Z</time>
      </trkpt>
      <trkpt lat="44.21449" lon="0.68902">
        <ele>173.6</ele>
        <time>2025-04-06T14:27:23.841Z</time>
      </trkpt>
      <trkpt lat="44.21435" lon="0.68921">
        <ele>173.6</ele>
        <time>2025-04-06T14:27:39.841Z</time>
      </trkpt>
      <trkpt lat="44.21423" lon="0.6894">
        <ele>173</ele>
        <time>2025-04-06T14:27:55.840Z</time>
      </trkpt>
      <trkpt lat="44.21411" lon="0.68946">
        <ele>172.6</ele>
        <time>2025-04-06T14:28:07.841Z</time>
      </trkpt>
      <trkpt lat="44.21373" lon="0.68952">
        <ele>170.1</ele>
        <time>2025-04-06T14:28:39.840Z</time>
      </trkpt>
      <trkpt lat="44.21336" lon="0.6896">
        <ele>167.2</ele>
        <time>2025-04-06T14:29:11.840Z</time>
      </trkpt>
      <trkpt lat="44.21327" lon="0.68959">
        <ele>166.5</ele>
        <time>2025-04-06T14:29:19.841Z</time>
      </trkpt>
      <trkpt lat="44.21308" lon="0.68966">
        <ele>165.2</ele>
        <time>2025-04-06T14:29:35.841Z</time>
      </trkpt>
      <trkpt lat="44.2129" lon="0.68968">
        <ele>162.8</ele>
        <time>2025-04-06T14:29:51.841Z</time>
      </trkpt>
      <trkpt lat="44.21233" lon="0.68986">
        <ele>159.1</ele>
        <time>2025-04-06T14:30:39.840Z</time>
      </trkpt>
      <trkpt lat="44.21226" lon="0.68989">
        <ele>158.6</ele>
        <time>2025-04-06T14:30:47.841Z</time>
      </trkpt>
      <trkpt lat="44.21211" lon="0.68977">
        <ele>158</ele>
        <time>2025-04-06T14:31:19.841Z</time>
      </trkpt>
      <trkpt lat="44.21189" lon="0.68963">
        <ele>156.4</ele>
        <time>2025-04-06T14:31:43.841Z</time>
      </trkpt>
      <trkpt lat="44.2118" lon="0.68956">
        <ele>155.4</ele>
        <time>2025-04-06T14:31:51.841Z</time>
      </trkpt>
      <trkpt lat="44.21169" lon="0.68951">
        <ele>154.2</ele>
        <time>2025-04-06T14:31:59.841Z</time>
      </trkpt>
      <trkpt lat="44.2115" lon="0.6894">
        <ele>153</ele>
        <time>2025-04-06T14:32:15.840Z</time>
      </trkpt>
      <trkpt lat="44.21104" lon="0.68916">
        <ele>149.5</ele>
        <time>2025-04-06T14:32:55.841Z</time>
      </trkpt>
      <trkpt lat="44.2109" lon="0.68904">
        <ele>148.7</ele>
        <time>2025-04-06T14:33:11.841Z</time>
      </trkpt>
      <trkpt lat="44.21082" lon="0.68895">
        <ele>149.2</ele>
        <time>2025-04-06T14:33:19.840Z</time>
      </trkpt>
      <trkpt lat="44.21058" lon="0.68853">
        <ele>149.7</ele>
        <time>2025-04-06T14:33:51.841Z</time>
      </trkpt>
      <trkpt lat="44.2105" lon="0.68846">
        <ele>150.2</ele>
        <time>2025-04-06T14:33:59.840Z</time>
      </trkpt>
      <trkpt lat="44.21032" lon="0.68836">
        <ele>151.5</ele>
        <time>2025-04-06T14:34:15.841Z</time>
      </trkpt>
      <trkpt lat="44.20996" lon="0.68819">
        <ele>149.7</ele>
        <time>2025-04-06T14:34:47.840Z</time>
      </trkpt>
      <trkpt lat="44.20987" lon="0.68811">
        <ele>149.9</ele>
        <time>2025-04-06T14:34:55.841Z</time>
      </trkpt>
      <trkpt lat="44.20973" lon="0.68803">
        <ele>150.2</ele>
        <time>2025-04-06T14:35:11.840Z</time>
      </trkpt>
      <trkpt lat="44.20961" lon="0.68797">
        <ele>150.8</ele>
        <time>2025-04-06T14:35:27.841Z</time>
      </trkpt>
      <trkpt lat="44.20946" lon="0.68794">
        <ele>151.7</ele>
        <time>2025-04-06T14:35:37.841Z</time>
      </trkpt>
      <trkpt lat="44.20928" lon="0.68799">
        <ele>152.1</ele>
        <time>2025-04-06T14:36:41.841Z</time>
      </trkpt>
      <trkpt lat="44.2092" lon="0.68804">
        <ele>152</ele>
        <time>2025-04-06T14:37:45.841Z</time>
      </trkpt>
    </trkseg>
  </trk>
</gpx>